PWSweather.com
Personal Weather Stations
Station Observations
WD4JKH
Forsyth, GA 31029

Forsyth, GA 31029

Lat: 33.033225, Lon: -83.927995

Elevation: 709

Station Type: Davis Vantage VUE

High Low Average
Temperature 61.1°F16.2°C 49.9°F9.9°C 55.1°F12.8°C
Dew Point 57.6°F14.2°C 36.3°F2.4°C 49.2°F9.6°C
Winds 7.7 mph 12.4 kmh Calm Calm 3.0 mph SW4.8 kmh SW
Wind Gusts 13.0 mph20.9 kmh 2.0 mph3.2 kmh 8.0 mph12.9 kmh
Humidity 97% 52% 82%
Pressure 30.02 in1016.6 mb 29.82 in1009.8 mb -
Precipitation 0.06 in1.5 mm - -
Hour Temp Dew Point Humidity Winds Wind Gusts Pressure Precip Precip Rate Daily Precip Total
12:00 AM 53.5°F11.9°C 36.3°F2.4°C 52% 3.7 mph SSW6.0 kmh SSW 11.0 mph17.7 kmh 30.00 in1015.9 mb 0.00 in0.0 mm 0.00 in0.0 mm 0.00 in0.0 mm
12:05 AM 53.6°F12.0°C 36.4°F2.4°C 52% 4.4 mph SW7.1 kmh SW 11.0 mph17.7 kmh 30.00 in1015.9 mb 0.00 in0.0 mm 0.00 in0.0 mm 0.00 in0.0 mm
12:10 AM 53.7°F12.1°C 36.5°F2.5°C 52% 5.6 mph SW9.0 kmh SW 13.0 mph20.9 kmh 30.01 in1016.3 mb 0.00 in0.0 mm 0.00 in0.0 mm 0.00 in0.0 mm
12:15 AM 53.8°F12.1°C 36.6°F2.6°C 52% 6.1 mph SW9.8 kmh SW 13.0 mph20.9 kmh 30.01 in1016.3 mb 0.00 in0.0 mm 0.00 in0.0 mm 0.00 in0.0 mm
12:20 AM 53.8°F12.1°C 36.6°F2.6°C 52% 7.7 mph SW12.4 kmh SW 13.0 mph20.9 kmh 30.00 in1015.9 mb 0.00 in0.0 mm 0.00 in0.0 mm 0.00 in0.0 mm
12:25 AM 53.7°F12.1°C 36.5°F2.5°C 52% 6.1 mph SW9.8 kmh SW 13.0 mph20.9 kmh 30.00 in1015.9 mb 0.00 in0.0 mm 0.00 in0.0 mm 0.00 in0.0 mm
12:30 AM 53.7°F12.1°C 36.5°F2.5°C 52% 4.9 mph SW7.9 kmh SW 13.0 mph20.9 kmh 30.00 in1015.9 mb 0.00 in0.0 mm 0.00 in0.0 mm 0.00 in0.0 mm
12:35 AM 53.6°F12.0°C 36.4°F2.4°C 52% 4.5 mph SW7.2 kmh SW 13.0 mph20.9 kmh 30.01 in1016.3 mb 0.00 in0.0 mm 0.00 in0.0 mm 0.00 in0.0 mm
12:40 AM 53.4°F11.9°C 36.7°F2.6°C 53% 4.6 mph SW7.4 kmh SW 13.0 mph20.9 kmh 30.00 in1015.9 mb 0.00 in0.0 mm 0.00 in0.0 mm 0.00 in0.0 mm
12:45 AM 53.3°F11.8°C 36.6°F2.6°C 53% 5.3 mph SW8.5 kmh SW 11.0 mph17.7 kmh 30.00 in1015.9 mb 0.00 in0.0 mm 0.00 in0.0 mm 0.00 in0.0 mm
12:50 AM 53.1°F11.7°C 36.4°F2.4°C 53% 2.8 mph SW4.5 kmh SW 11.0 mph17.7 kmh 30.00 in1015.9 mb 0.00 in0.0 mm 0.00 in0.0 mm 0.00 in0.0 mm
12:55 AM 53.0°F11.7°C 36.8°F2.7°C 54% 3.1 mph SW5.0 kmh SW 11.0 mph17.7 kmh 30.01 in1016.3 mb 0.00 in0.0 mm 0.00 in0.0 mm 0.00 in0.0 mm
01:00 AM 53.0°F11.7°C 36.8°F2.7°C 54% 3.0 mph SW4.8 kmh SW 11.0 mph17.7 kmh 30.01 in1016.3 mb 0.00 in0.0 mm 0.00 in0.0 mm 0.00 in0.0 mm
01:05 AM 52.8°F11.6°C 36.6°F2.6°C 54% 2.3 mph SW3.7 kmh SW 9.0 mph14.5 kmh 30.01 in1016.3 mb 0.00 in0.0 mm 0.00 in0.0 mm 0.00 in0.0 mm
01:10 AM 52.7°F11.5°C 36.6°F2.6°C 54% 3.4 mph SW5.5 kmh SW 9.0 mph14.5 kmh 30.01 in1016.3 mb 0.00 in0.0 mm 0.00 in0.0 mm 0.00 in0.0 mm
01:15 AM 52.6°F11.4°C 36.5°F2.5°C 54% 3.0 mph SW4.8 kmh SW 7.0 mph11.3 kmh 30.01 in1016.3 mb 0.00 in0.0 mm 0.00 in0.0 mm 0.00 in0.0 mm
01:20 AM 52.6°F11.4°C 36.9°F2.7°C 55% 3.1 mph SW5.0 kmh SW 7.0 mph11.3 kmh 30.01 in1016.3 mb 0.00 in0.0 mm 0.00 in0.0 mm 0.00 in0.0 mm
01:25 AM 52.4°F11.3°C 36.7°F2.6°C 55% 1.7 mph SW2.7 kmh SW 7.0 mph11.3 kmh 30.01 in1016.3 mb 0.00 in0.0 mm 0.00 in0.0 mm 0.00 in0.0 mm
01:30 AM 52.3°F11.3°C 36.7°F2.6°C 55% 1.0 mph WSW1.6 kmh WSW 6.0 mph9.7 kmh 30.01 in1016.3 mb 0.00 in0.0 mm 0.00 in0.0 mm 0.00 in0.0 mm
01:35 AM 52.2°F11.2°C 36.6°F2.6°C 55% 1.0 mph SW1.6 kmh SW 6.0 mph9.7 kmh 30.01 in1016.3 mb 0.00 in0.0 mm 0.00 in0.0 mm 0.00 in0.0 mm
01:40 AM 52.1°F11.2°C 36.9°F2.7°C 56% 2.4 mph SW3.9 kmh SW 5.0 mph8.0 kmh 30.01 in1016.3 mb 0.00 in0.0 mm 0.00 in0.0 mm 0.00 in0.0 mm
01:45 AM 52.1°F11.2°C 36.9°F2.7°C 56% 1.7 mph SW2.7 kmh SW 5.0 mph8.0 kmh 30.01 in1016.3 mb 0.00 in0.0 mm 0.00 in0.0 mm 0.00 in0.0 mm
01:50 AM 52.0°F11.1°C 36.8°F2.7°C 56% 1.2 mph SW1.9 kmh SW 5.0 mph8.0 kmh 30.01 in1016.3 mb 0.00 in0.0 mm 0.00 in0.0 mm 0.00 in0.0 mm
01:55 AM 52.0°F11.1°C 36.8°F2.7°C 56% 1.4 mph SW2.3 kmh SW 5.0 mph8.0 kmh 30.02 in1016.6 mb 0.00 in0.0 mm 0.00 in0.0 mm 0.00 in0.0 mm
02:00 AM 52.0°F11.1°C 36.8°F2.7°C 56% 1.3 mph SW2.1 kmh SW 4.0 mph6.4 kmh 30.02 in1016.6 mb 0.00 in0.0 mm 0.00 in0.0 mm 0.00 in0.0 mm
02:05 AM 51.9°F11.1°C 36.8°F2.7°C 56% 1.8 mph SW2.9 kmh SW 4.0 mph6.4 kmh 30.02 in1016.6 mb 0.00 in0.0 mm 0.00 in0.0 mm 0.00 in0.0 mm
02:10 AM 51.9°F11.1°C 37.1°F2.8°C 57% 2.5 mph SW4.0 kmh SW 4.0 mph6.4 kmh 30.02 in1016.6 mb 0.00 in0.0 mm 0.00 in0.0 mm 0.00 in0.0 mm
02:15 AM 51.9°F11.1°C 37.2°F2.9°C 57% 1.7 mph SW2.7 kmh SW 5.0 mph8.0 kmh 30.02 in1016.6 mb 0.00 in0.0 mm 0.00 in0.0 mm 0.00 in0.0 mm
02:20 AM 51.8°F11.0°C 37.1°F2.8°C 57% 2.1 mph SW3.4 kmh SW 5.0 mph8.0 kmh 30.02 in1016.6 mb 0.00 in0.0 mm 0.00 in0.0 mm 0.00 in0.0 mm
02:25 AM 51.6°F10.9°C 36.9°F2.7°C 57% 1.3 mph SW2.1 kmh SW 5.0 mph8.0 kmh 30.02 in1016.6 mb 0.00 in0.0 mm 0.00 in0.0 mm 0.00 in0.0 mm
02:30 AM 51.6°F10.9°C 37.4°F3.0°C 58% 2.0 mph SW3.2 kmh SW 5.0 mph8.0 kmh 30.01 in1016.3 mb 0.00 in0.0 mm 0.00 in0.0 mm 0.00 in0.0 mm
02:35 AM 51.5°F10.8°C 37.3°F2.9°C 58% 1.9 mph SW3.1 kmh SW 5.0 mph8.0 kmh 30.02 in1016.6 mb 0.00 in0.0 mm 0.00 in0.0 mm 0.00 in0.0 mm
02:40 AM 51.4°F10.8°C 37.2°F2.9°C 58% 2.1 mph SW3.4 kmh SW 5.0 mph8.0 kmh 30.01 in1016.3 mb 0.00 in0.0 mm 0.00 in0.0 mm 0.00 in0.0 mm
02:45 AM 51.4°F10.8°C 37.6°F3.1°C 59% 2.1 mph SW3.4 kmh SW 5.0 mph8.0 kmh 30.01 in1016.3 mb 0.00 in0.0 mm 0.00 in0.0 mm 0.00 in0.0 mm
02:50 AM 51.4°F10.8°C 37.6°F3.1°C 59% 1.7 mph SW2.7 kmh SW 5.0 mph8.0 kmh 30.01 in1016.3 mb 0.00 in0.0 mm 0.00 in0.0 mm 0.00 in0.0 mm
02:55 AM 51.2°F10.7°C 37.4°F3.0°C 59% 2.0 mph SW3.2 kmh SW 5.0 mph8.0 kmh 30.00 in1015.9 mb 0.00 in0.0 mm 0.00 in0.0 mm 0.00 in0.0 mm
03:00 AM 51.2°F10.7°C 37.9°F3.3°C 60% 1.7 mph SW2.7 kmh SW 5.0 mph8.0 kmh 30.00 in1015.9 mb 0.00 in0.0 mm 0.00 in0.0 mm 0.00 in0.0 mm
03:05 AM 51.3°F10.7°C 38.0°F3.3°C 60% 3.0 mph SW4.8 kmh SW 8.0 mph12.9 kmh 30.00 in1015.9 mb 0.00 in0.0 mm 0.00 in0.0 mm 0.00 in0.0 mm
03:10 AM 51.5°F10.8°C 38.2°F3.4°C 60% 2.6 mph SW4.2 kmh SW 8.0 mph12.9 kmh 30.00 in1015.9 mb 0.00 in0.0 mm 0.00 in0.0 mm 0.00 in0.0 mm
03:15 AM 51.5°F10.8°C 38.6°F3.7°C 61% 3.4 mph SW5.5 kmh SW 8.0 mph12.9 kmh 29.99 in1015.6 mb 0.00 in0.0 mm 0.00 in0.0 mm 0.00 in0.0 mm
03:20 AM 51.5°F10.8°C 38.6°F3.7°C 61% 2.6 mph SW4.2 kmh SW 8.0 mph12.9 kmh 29.99 in1015.6 mb 0.00 in0.0 mm 0.00 in0.0 mm 0.00 in0.0 mm
03:24 AM 51.5°F10.8°C 39.0°F3.9°C 62% 3.3 mph SW5.3 kmh SW 8.0 mph12.9 kmh 29.99 in1015.6 mb 0.00 in0.0 mm 0.00 in0.0 mm 0.00 in0.0 mm
03:29 AM 51.5°F10.8°C 39.0°F3.9°C 62% 3.2 mph SW5.1 kmh SW 7.0 mph11.3 kmh 29.99 in1015.6 mb 0.00 in0.0 mm 0.00 in0.0 mm 0.00 in0.0 mm
03:34 AM 51.6°F10.9°C 39.1°F3.9°C 62% 3.1 mph SW5.0 kmh SW 7.0 mph11.3 kmh 29.99 in1015.6 mb 0.00 in0.0 mm 0.00 in0.0 mm 0.00 in0.0 mm
03:39 AM 51.4°F10.8°C 39.2°F4.0°C 63% 2.2 mph SSW3.5 kmh SSW 7.0 mph11.3 kmh 29.98 in1015.2 mb 0.00 in0.0 mm 0.00 in0.0 mm 0.00 in0.0 mm
03:44 AM 51.3°F10.7°C 39.2°F4.0°C 63% 3.5 mph SSW5.6 kmh SSW 8.0 mph12.9 kmh 29.98 in1015.2 mb 0.00 in0.0 mm 0.00 in0.0 mm 0.00 in0.0 mm
03:49 AM 51.2°F10.7°C 39.6°F4.2°C 64% 2.2 mph SSW3.5 kmh SSW 8.0 mph12.9 kmh 29.98 in1015.2 mb 0.00 in0.0 mm 0.00 in0.0 mm 0.00 in0.0 mm
03:54 AM 51.2°F10.7°C 39.6°F4.2°C 64% 2.2 mph SW3.5 kmh SW 8.0 mph12.9 kmh 29.98 in1015.2 mb 0.00 in0.0 mm 0.00 in0.0 mm 0.00 in0.0 mm
03:59 AM 51.1°F10.6°C 39.3°F4.1°C 64% 2.6 mph SW4.2 kmh SW 6.0 mph9.7 kmh 29.98 in1015.2 mb 0.00 in0.0 mm 0.00 in0.0 mm 0.00 in0.0 mm
04:04 AM 51.1°F10.6°C 39.9°F4.4°C 65% 2.8 mph SW4.5 kmh SW 6.0 mph9.7 kmh 29.98 in1015.2 mb 0.00 in0.0 mm 0.00 in0.0 mm 0.00 in0.0 mm
04:09 AM 51.2°F10.7°C 40.0°F4.4°C 65% 3.3 mph SW5.3 kmh SW 6.0 mph9.7 kmh 29.98 in1015.2 mb 0.00 in0.0 mm 0.00 in0.0 mm 0.00 in0.0 mm
04:14 AM 51.2°F10.7°C 40.0°F4.4°C 65% 2.9 mph SSW4.7 kmh SSW 6.0 mph9.7 kmh 29.97 in1014.9 mb 0.00 in0.0 mm 0.00 in0.0 mm 0.00 in0.0 mm
04:19 AM 51.2°F10.7°C 40.0°F4.4°C 65% 2.3 mph SW3.7 kmh SW 7.0 mph11.3 kmh 29.97 in1014.9 mb 0.00 in0.0 mm 0.00 in0.0 mm 0.00 in0.0 mm
04:24 AM 51.1°F10.6°C 40.2°F4.6°C 66% 2.2 mph SW3.5 kmh SW 7.0 mph11.3 kmh 29.97 in1014.9 mb 0.00 in0.0 mm 0.00 in0.0 mm 0.00 in0.0 mm
04:29 AM 51.0°F10.6°C 40.0°F4.4°C 66% 2.7 mph SW4.3 kmh SW 7.0 mph11.3 kmh 29.97 in1014.9 mb 0.00 in0.0 mm 0.00 in0.0 mm 0.00 in0.0 mm
04:34 AM 51.0°F10.6°C 40.2°F4.6°C 66% 2.3 mph SW3.7 kmh SW 7.0 mph11.3 kmh 29.97 in1014.9 mb 0.00 in0.0 mm 0.00 in0.0 mm 0.00 in0.0 mm
04:39 AM 51.0°F10.6°C 40.5°F4.7°C 67% 3.8 mph SW6.1 kmh SW 8.0 mph12.9 kmh 29.97 in1014.9 mb 0.00 in0.0 mm 0.00 in0.0 mm 0.00 in0.0 mm
04:44 AM 50.9°F10.5°C 40.4°F4.7°C 67% 3.1 mph SW5.0 kmh SW 8.0 mph12.9 kmh 29.96 in1014.6 mb 0.00 in0.0 mm 0.00 in0.0 mm 0.00 in0.0 mm
04:49 AM 50.9°F10.5°C 40.3°F4.6°C 67% 2.6 mph SW4.2 kmh SW 8.0 mph12.9 kmh 29.96 in1014.6 mb 0.00 in0.0 mm 0.00 in0.0 mm 0.00 in0.0 mm
04:54 AM 50.8°F10.4°C 40.3°F4.6°C 67% 4.9 mph SW7.9 kmh SW 8.0 mph12.9 kmh 29.96 in1014.6 mb 0.00 in0.0 mm 0.00 in0.0 mm 0.00 in0.0 mm
04:59 AM 50.8°F10.4°C 40.6°F4.8°C 68% 3.7 mph SW6.0 kmh SW 8.0 mph12.9 kmh 29.96 in1014.6 mb 0.00 in0.0 mm 0.00 in0.0 mm 0.00 in0.0 mm
05:04 AM 50.8°F10.4°C 40.7°F4.8°C 68% 3.2 mph SW5.1 kmh SW 9.0 mph14.5 kmh 29.96 in1014.6 mb 0.00 in0.0 mm 0.00 in0.0 mm 0.00 in0.0 mm
05:09 AM 50.8°F10.4°C 40.7°F4.8°C 68% 2.9 mph SW4.7 kmh SW 9.0 mph14.5 kmh 29.96 in1014.6 mb 0.00 in0.0 mm 0.00 in0.0 mm 0.00 in0.0 mm
05:14 AM 50.7°F10.4°C 40.5°F4.7°C 68% 3.3 mph SW5.3 kmh SW 9.0 mph14.5 kmh 29.96 in1014.6 mb 0.00 in0.0 mm 0.00 in0.0 mm 0.00 in0.0 mm
05:19 AM 50.7°F10.4°C 41.0°F5.0°C 69% 3.4 mph SW5.5 kmh SW 9.0 mph14.5 kmh 29.95 in1014.2 mb 0.00 in0.0 mm 0.00 in0.0 mm 0.00 in0.0 mm
05:24 AM 50.6°F10.3°C 40.8°F4.9°C 69% 2.9 mph SW4.7 kmh SW 9.0 mph14.5 kmh 29.95 in1014.2 mb 0.00 in0.0 mm 0.00 in0.0 mm 0.00 in0.0 mm
05:29 AM 50.5°F10.3°C 40.8°F4.9°C 69% 4.3 mph SW6.9 kmh SW 8.0 mph12.9 kmh 29.95 in1014.2 mb 0.00 in0.0 mm 0.00 in0.0 mm 0.00 in0.0 mm
05:34 AM 50.5°F10.3°C 41.2°F5.1°C 70% 3.4 mph SW5.5 kmh SW 8.0 mph12.9 kmh 29.95 in1014.2 mb 0.00 in0.0 mm 0.00 in0.0 mm 0.00 in0.0 mm
05:39 AM 50.6°F10.3°C 41.2°F5.1°C 70% 4.6 mph SW7.4 kmh SW 8.0 mph12.9 kmh 29.95 in1014.2 mb 0.00 in0.0 mm 0.00 in0.0 mm 0.00 in0.0 mm
05:44 AM 50.6°F10.3°C 41.3°F5.2°C 70% 3.0 mph SW4.8 kmh SW 8.0 mph12.9 kmh 29.96 in1014.6 mb 0.00 in0.0 mm 0.00 in0.0 mm 0.00 in0.0 mm
05:49 AM 50.6°F10.3°C 41.6°F5.3°C 71% 3.2 mph SW5.1 kmh SW 9.0 mph14.5 kmh 29.96 in1014.6 mb 0.00 in0.0 mm 0.00 in0.0 mm 0.00 in0.0 mm
05:54 AM 50.7°F10.4°C 41.7°F5.4°C 71% 3.7 mph SW6.0 kmh SW 9.0 mph14.5 kmh 29.96 in1014.6 mb 0.00 in0.0 mm 0.00 in0.0 mm 0.00 in0.0 mm
05:59 AM 50.7°F10.4°C 41.7°F5.4°C 71% 3.3 mph SW5.3 kmh SW 9.0 mph14.5 kmh 29.96 in1014.6 mb 0.00 in0.0 mm 0.00 in0.0 mm 0.00 in0.0 mm
06:04 AM 50.7°F10.4°C 41.6°F5.3°C 71% 4.1 mph SW6.6 kmh SW 9.0 mph14.5 kmh 29.96 in1014.6 mb 0.00 in0.0 mm 0.00 in0.0 mm 0.00 in0.0 mm
06:09 AM 50.6°F10.3°C 42.0°F5.6°C 72% 2.9 mph SW4.7 kmh SW 8.0 mph12.9 kmh 29.95 in1014.2 mb 0.00 in0.0 mm 0.00 in0.0 mm 0.00 in0.0 mm
06:14 AM 50.4°F10.2°C 41.8°F5.4°C 72% 3.1 mph SW5.0 kmh SW 8.0 mph12.9 kmh 29.95 in1014.2 mb 0.00 in0.0 mm 0.00 in0.0 mm 0.00 in0.0 mm
06:19 AM 50.4°F10.2°C 41.8°F5.4°C 72% 3.5 mph SW5.6 kmh SW 8.0 mph12.9 kmh 29.95 in1014.2 mb 0.00 in0.0 mm 0.00 in0.0 mm 0.00 in0.0 mm
06:24 AM 50.3°F10.2°C 42.1°F5.6°C 73% 4.4 mph SW7.1 kmh SW 7.0 mph11.3 kmh 29.95 in1014.2 mb 0.00 in0.0 mm 0.00 in0.0 mm 0.00 in0.0 mm
06:29 AM 50.4°F10.2°C 42.2°F5.7°C 73% 2.6 mph SSW4.2 kmh SSW 7.0 mph11.3 kmh 29.95 in1014.2 mb 0.00 in0.0 mm 0.00 in0.0 mm 0.00 in0.0 mm
06:34 AM 50.4°F10.2°C 42.2°F5.7°C 73% 2.9 mph SW4.7 kmh SW 8.0 mph12.9 kmh 29.95 in1014.2 mb 0.00 in0.0 mm 0.00 in0.0 mm 0.00 in0.0 mm
06:39 AM 50.4°F10.2°C 42.2°F5.7°C 73% 2.9 mph SW4.7 kmh SW 8.0 mph12.9 kmh 29.95 in1014.2 mb 0.00 in0.0 mm 0.00 in0.0 mm 0.00 in0.0 mm
06:44 AM 50.3°F10.2°C 42.4°F5.8°C 74% 2.7 mph SW4.3 kmh SW 8.0 mph12.9 kmh 29.95 in1014.2 mb 0.00 in0.0 mm 0.00 in0.0 mm 0.00 in0.0 mm
06:49 AM 50.3°F10.2°C 42.4°F5.8°C 74% 3.0 mph SW4.8 kmh SW 8.0 mph12.9 kmh 29.95 in1014.2 mb 0.00 in0.0 mm 0.00 in0.0 mm 0.00 in0.0 mm
06:54 AM 50.2°F10.1°C 42.7°F5.9°C 75% 3.1 mph SW5.0 kmh SW 8.0 mph12.9 kmh 29.95 in1014.2 mb 0.00 in0.0 mm 0.00 in0.0 mm 0.00 in0.0 mm
06:59 AM 50.2°F10.1°C 42.6°F5.9°C 75% 3.9 mph SW6.3 kmh SW 8.0 mph12.9 kmh 29.94 in1013.9 mb 0.00 in0.0 mm 0.00 in0.0 mm 0.00 in0.0 mm
07:04 AM 50.1°F10.1°C 42.5°F5.8°C 75% 3.2 mph SW5.1 kmh SW 8.0 mph12.9 kmh 29.94 in1013.9 mb 0.00 in0.0 mm 0.00 in0.0 mm 0.00 in0.0 mm
07:09 AM 50.1°F10.1°C 42.9°F6.1°C 76% 2.9 mph SW4.7 kmh SW 8.0 mph12.9 kmh 29.94 in1013.9 mb 0.00 in0.0 mm 0.00 in0.0 mm 0.00 in0.0 mm
07:14 AM 50.1°F10.1°C 42.9°F6.1°C 76% 4.3 mph SW6.9 kmh SW 8.0 mph12.9 kmh 29.94 in1013.9 mb 0.00 in0.0 mm 0.00 in0.0 mm 0.00 in0.0 mm
07:19 AM 50.2°F10.1°C 43.0°F6.1°C 76% 3.2 mph SW5.1 kmh SW 8.0 mph12.9 kmh 29.95 in1014.2 mb 0.00 in0.0 mm 0.00 in0.0 mm 0.00 in0.0 mm
07:24 AM 50.1°F10.1°C 42.9°F6.1°C 76% 2.9 mph SW4.7 kmh SW 8.0 mph12.9 kmh 29.95 in1014.2 mb 0.00 in0.0 mm 0.00 in0.0 mm 0.00 in0.0 mm
07:29 AM 50.1°F10.1°C 42.8°F6.0°C 76% 3.0 mph SW4.8 kmh SW 8.0 mph12.9 kmh 29.95 in1014.2 mb 0.00 in0.0 mm 0.00 in0.0 mm 0.00 in0.0 mm
07:34 AM 50.1°F10.1°C 42.9°F6.1°C 76% 3.6 mph SW5.8 kmh SW 8.0 mph12.9 kmh 29.95 in1014.2 mb 0.00 in0.0 mm 0.00 in0.0 mm 0.00 in0.0 mm
07:39 AM 50.0°F10.0°C 43.1°F6.2°C 77% 2.9 mph SW4.7 kmh SW 8.0 mph12.9 kmh 29.95 in1014.2 mb 0.00 in0.0 mm 0.00 in0.0 mm 0.00 in0.0 mm
07:44 AM 49.9°F9.9°C 43.0°F6.1°C 77% 1.9 mph SW3.1 kmh SW 8.0 mph12.9 kmh 29.95 in1014.2 mb 0.00 in0.0 mm 0.00 in0.0 mm 0.00 in0.0 mm
07:49 AM 49.9°F9.9°C 43.0°F6.1°C 77% 3.3 mph SW5.3 kmh SW 8.0 mph12.9 kmh 29.96 in1014.6 mb 0.00 in0.0 mm 0.00 in0.0 mm 0.00 in0.0 mm
07:54 AM 50.0°F10.0°C 43.1°F6.2°C 77% 2.5 mph SW4.0 kmh SW 7.0 mph11.3 kmh 29.95 in1014.2 mb 0.00 in0.0 mm 0.00 in0.0 mm 0.00 in0.0 mm
07:59 AM 49.9°F9.9°C 43.3°F6.3°C 78% 2.7 mph SW4.3 kmh SW 7.0 mph11.3 kmh 29.96 in1014.6 mb 0.00 in0.0 mm 0.00 in0.0 mm 0.00 in0.0 mm
08:04 AM 49.9°F9.9°C 43.4°F6.3°C 78% 2.5 mph SW4.0 kmh SW 7.0 mph11.3 kmh 29.96 in1014.6 mb 0.00 in0.0 mm 0.00 in0.0 mm 0.00 in0.0 mm
08:09 AM 49.9°F9.9°C 43.3°F6.3°C 78% 3.2 mph SW5.1 kmh SW 7.0 mph11.3 kmh 29.96 in1014.6 mb 0.00 in0.0 mm 0.00 in0.0 mm 0.00 in0.0 mm
08:14 AM 49.9°F9.9°C 43.4°F6.3°C 78% 3.7 mph SW6.0 kmh SW 7.0 mph11.3 kmh 29.96 in1014.6 mb 0.00 in0.0 mm 0.00 in0.0 mm 0.00 in0.0 mm
08:19 AM 50.0°F10.0°C 43.5°F6.4°C 78% 3.9 mph SW6.3 kmh SW 8.0 mph12.9 kmh 29.96 in1014.6 mb 0.00 in0.0 mm 0.00 in0.0 mm 0.00 in0.0 mm
08:24 AM 50.2°F10.1°C 43.7°F6.5°C 78% 3.6 mph SW5.8 kmh SW 8.0 mph12.9 kmh 29.97 in1014.9 mb 0.00 in0.0 mm 0.00 in0.0 mm 0.00 in0.0 mm
08:29 AM 50.3°F10.2°C 43.8°F6.6°C 78% 1.5 mph SW2.4 kmh SW 8.0 mph12.9 kmh 29.97 in1014.9 mb 0.00 in0.0 mm 0.00 in0.0 mm 0.00 in0.0 mm
08:34 AM 50.4°F10.2°C 43.9°F6.6°C 78% 3.5 mph SW5.6 kmh SW 8.0 mph12.9 kmh 29.97 in1014.9 mb 0.00 in0.0 mm 0.00 in0.0 mm 0.00 in0.0 mm
08:39 AM 50.4°F10.2°C 44.2°F6.8°C 79% 2.8 mph SW4.5 kmh SW 7.0 mph11.3 kmh 29.97 in1014.9 mb 0.00 in0.0 mm 0.00 in0.0 mm 0.00 in0.0 mm
08:44 AM 50.4°F10.2°C 44.2°F6.8°C 79% 3.1 mph SW5.0 kmh SW 7.0 mph11.3 kmh 29.98 in1015.2 mb 0.00 in0.0 mm 0.00 in0.0 mm 0.00 in0.0 mm
08:49 AM 50.6°F10.3°C 44.4°F6.9°C 79% 3.3 mph SW5.3 kmh SW 8.0 mph12.9 kmh 29.97 in1014.9 mb 0.00 in0.0 mm 0.00 in0.0 mm 0.00 in0.0 mm
08:54 AM 50.6°F10.3°C 44.4°F6.9°C 79% 3.9 mph SW6.3 kmh SW 8.0 mph12.9 kmh 29.98 in1015.2 mb 0.00 in0.0 mm 0.00 in0.0 mm 0.00 in0.0 mm
08:59 AM 50.8°F10.4°C 44.9°F7.2°C 80% 2.1 mph SW3.4 kmh SW 8.0 mph12.9 kmh 29.97 in1014.9 mb 0.00 in0.0 mm 0.00 in0.0 mm 0.00 in0.0 mm
09:04 AM 50.9°F10.5°C 44.9°F7.2°C 80% 3.0 mph SW4.8 kmh SW 8.0 mph12.9 kmh 29.97 in1014.9 mb 0.00 in0.0 mm 0.00 in0.0 mm 0.00 in0.0 mm
09:09 AM 51.1°F10.6°C 45.2°F7.3°C 80% 2.8 mph SSW4.5 kmh SSW 10.0 mph16.1 kmh 29.98 in1015.2 mb 0.00 in0.0 mm 0.00 in0.0 mm 0.00 in0.0 mm
09:14 AM 51.3°F10.7°C 45.4°F7.4°C 80% 3.6 mph SW5.8 kmh SW 10.0 mph16.1 kmh 29.98 in1015.2 mb 0.00 in0.0 mm 0.00 in0.0 mm 0.00 in0.0 mm
09:19 AM 51.5°F10.8°C 45.6°F7.6°C 80% 2.6 mph SW4.2 kmh SW 10.0 mph16.1 kmh 29.98 in1015.2 mb 0.00 in0.0 mm 0.00 in0.0 mm 0.00 in0.0 mm
09:23 AM 51.7°F10.9°C 46.1°F7.8°C 81% 4.6 mph SW7.4 kmh SW 10.0 mph16.1 kmh 29.98 in1015.2 mb 0.00 in0.0 mm 0.00 in0.0 mm 0.00 in0.0 mm
09:28 AM 51.9°F11.1°C 46.3°F7.9°C 81% 2.4 mph SW3.9 kmh SW 9.0 mph14.5 kmh 29.97 in1014.9 mb 0.00 in0.0 mm 0.00 in0.0 mm 0.00 in0.0 mm
09:33 AM 52.0°F11.1°C 46.3°F7.9°C 81% 3.3 mph SW5.3 kmh SW 9.0 mph14.5 kmh 29.97 in1014.9 mb 0.00 in0.0 mm 0.00 in0.0 mm 0.00 in0.0 mm
09:38 AM 52.2°F11.2°C 46.6°F8.1°C 81% 3.4 mph SW5.5 kmh SW 9.0 mph14.5 kmh 29.97 in1014.9 mb 0.00 in0.0 mm 0.00 in0.0 mm 0.00 in0.0 mm
09:43 AM 52.4°F11.3°C 46.8°F8.2°C 81% 1.6 mph SW2.6 kmh SW 9.0 mph14.5 kmh 29.98 in1015.2 mb 0.00 in0.0 mm 0.00 in0.0 mm 0.00 in0.0 mm
09:48 AM 52.7°F11.5°C 47.1°F8.4°C 81% 3.4 mph SW5.5 kmh SW 9.0 mph14.5 kmh 29.97 in1014.9 mb 0.00 in0.0 mm 0.00 in0.0 mm 0.00 in0.0 mm
09:53 AM 52.9°F11.6°C 47.6°F8.7°C 82% 5.0 mph SW8.0 kmh SW 12.0 mph19.3 kmh 29.97 in1014.9 mb 0.00 in0.0 mm 0.00 in0.0 mm 0.00 in0.0 mm
09:58 AM 53.3°F11.8°C 48.0°F8.9°C 82% 2.9 mph SW4.7 kmh SW 12.0 mph19.3 kmh 29.96 in1014.6 mb 0.00 in0.0 mm 0.00 in0.0 mm 0.00 in0.0 mm
10:03 AM 53.5°F11.9°C 48.2°F9.0°C 82% 7.1 mph SW11.4 kmh SW 12.0 mph19.3 kmh 29.96 in1014.6 mb 0.00 in0.0 mm 0.00 in0.0 mm 0.00 in0.0 mm
10:08 AM 53.9°F12.2°C 48.6°F9.2°C 82% 4.6 mph SW7.4 kmh SW 12.0 mph19.3 kmh 29.96 in1014.6 mb 0.00 in0.0 mm 0.00 in0.0 mm 0.00 in0.0 mm
10:13 AM 54.4°F12.4°C 49.0°F9.4°C 82% 5.5 mph SW8.9 kmh SW 12.0 mph19.3 kmh 29.96 in1014.6 mb 0.00 in0.0 mm 0.00 in0.0 mm 0.00 in0.0 mm
10:18 AM 54.7°F12.6°C 49.3°F9.6°C 82% 3.3 mph SW5.3 kmh SW 12.0 mph19.3 kmh 29.96 in1014.6 mb 0.00 in0.0 mm 0.00 in0.0 mm 0.00 in0.0 mm
10:23 AM 55.1°F12.8°C 49.7°F9.8°C 82% 4.0 mph SW6.4 kmh SW 11.0 mph17.7 kmh 29.95 in1014.2 mb 0.00 in0.0 mm 0.00 in0.0 mm 0.00 in0.0 mm
10:28 AM 55.4°F13.0°C 50.0°F10.0°C 82% 4.3 mph SW6.9 kmh SW 11.0 mph17.7 kmh 29.96 in1014.6 mb 0.00 in0.0 mm 0.00 in0.0 mm 0.00 in0.0 mm
10:33 AM 55.5°F13.1°C 50.1°F10.1°C 82% 2.6 mph WSW4.2 kmh WSW 10.0 mph16.1 kmh 29.96 in1014.6 mb 0.00 in0.0 mm 0.00 in0.0 mm 0.00 in0.0 mm
10:38 AM 55.5°F13.1°C 50.4°F10.2°C 83% 4.7 mph SW7.6 kmh SW 11.0 mph17.7 kmh 29.97 in1014.9 mb 0.00 in0.0 mm 0.00 in0.0 mm 0.00 in0.0 mm
10:43 AM 55.6°F13.1°C 50.5°F10.3°C 83% 5.0 mph SW8.0 kmh SW 13.0 mph20.9 kmh 29.97 in1014.9 mb 0.00 in0.0 mm 0.00 in0.0 mm 0.00 in0.0 mm
10:48 AM 55.2°F12.9°C 51.4°F10.8°C 87% 5.1 mph SW8.2 kmh SW 13.0 mph20.9 kmh 29.97 in1014.9 mb 0.00 in0.0 mm 0.00 in0.0 mm 0.00 in0.0 mm
10:53 AM 54.7°F12.6°C 51.5°F10.8°C 89% 4.0 mph SW6.4 kmh SW 13.0 mph20.9 kmh 29.97 in1014.9 mb 0.00 in0.0 mm 0.00 in0.0 mm 0.00 in0.0 mm
10:58 AM 54.4°F12.4°C 51.5°F10.8°C 90% 5.6 mph SW9.0 kmh SW 13.0 mph20.9 kmh 29.97 in1014.9 mb 0.00 in0.0 mm 0.00 in0.0 mm 0.00 in0.0 mm
11:03 AM 54.1°F12.3°C 51.5°F10.8°C 91% 4.3 mph SW6.9 kmh SW 12.0 mph19.3 kmh 29.97 in1014.9 mb 0.00 in0.0 mm 0.00 in0.0 mm 0.00 in0.0 mm
11:08 AM 53.9°F12.2°C 51.6°F10.9°C 92% 4.6 mph SW7.4 kmh SW 12.0 mph19.3 kmh 29.97 in1014.9 mb 0.00 in0.0 mm 0.00 in0.0 mm 0.00 in0.0 mm
11:13 AM 53.7°F12.1°C 51.4°F10.8°C 92% 5.4 mph WSW8.7 kmh WSW 12.0 mph19.3 kmh 29.98 in1015.2 mb 0.00 in0.0 mm 0.00 in0.0 mm 0.00 in0.0 mm
11:18 AM 53.6°F12.0°C 51.3°F10.7°C 92% 4.2 mph WSW6.8 kmh WSW 12.0 mph19.3 kmh 29.98 in1015.2 mb 0.00 in0.0 mm 0.00 in0.0 mm 0.00 in0.0 mm
11:23 AM 53.4°F11.9°C 51.1°F10.6°C 92% 5.3 mph SW8.5 kmh SW 11.0 mph17.7 kmh 29.98 in1015.2 mb 0.00 in0.0 mm 0.00 in0.0 mm 0.00 in0.0 mm
11:28 AM 53.4°F11.9°C 51.1°F10.6°C 92% 4.3 mph SW6.9 kmh SW 11.0 mph17.7 kmh 29.98 in1015.2 mb 0.00 in0.0 mm 0.00 in0.0 mm 0.00 in0.0 mm
11:33 AM 53.4°F11.9°C 51.1°F10.6°C 92% 2.5 mph WSW4.0 kmh WSW 11.0 mph17.7 kmh 29.98 in1015.2 mb 0.00 in0.0 mm 0.00 in0.0 mm 0.00 in0.0 mm
11:38 AM 53.5°F11.9°C 51.2°F10.7°C 92% 2.3 mph SW3.7 kmh SW 11.0 mph17.7 kmh 29.97 in1014.9 mb 0.00 in0.0 mm 0.00 in0.0 mm 0.00 in0.0 mm
11:43 AM 53.7°F12.1°C 51.4°F10.8°C 92% 4.0 mph SW6.4 kmh SW 9.0 mph14.5 kmh 29.97 in1014.9 mb 0.00 in0.0 mm 0.00 in0.0 mm 0.00 in0.0 mm
11:48 AM 53.8°F12.1°C 51.5°F10.8°C 92% 4.0 mph WSW6.4 kmh WSW 9.0 mph14.5 kmh 29.96 in1014.6 mb 0.00 in0.0 mm 0.00 in0.0 mm 0.00 in0.0 mm
11:53 AM 54.1°F12.3°C 51.8°F11.0°C 92% 3.8 mph SW6.1 kmh SW 9.0 mph14.5 kmh 29.96 in1014.6 mb 0.00 in0.0 mm 0.00 in0.0 mm 0.00 in0.0 mm
11:58 AM 54.2°F12.3°C 51.9°F11.1°C 92% 5.4 mph SW8.7 kmh SW 9.0 mph14.5 kmh 29.96 in1014.6 mb 0.00 in0.0 mm 0.00 in0.0 mm 0.00 in0.0 mm
12:03 PM 54.4°F12.4°C 52.1°F11.2°C 92% 2.2 mph SW3.5 kmh SW 9.0 mph14.5 kmh 29.96 in1014.6 mb 0.00 in0.0 mm 0.00 in0.0 mm 0.00 in0.0 mm
12:08 PM 54.4°F12.4°C 51.8°F11.0°C 91% 4.0 mph SW6.4 kmh SW 9.0 mph14.5 kmh 29.96 in1014.6 mb 0.00 in0.0 mm 0.00 in0.0 mm 0.00 in0.0 mm
12:13 PM 54.5°F12.5°C 51.9°F11.1°C 91% 3.4 mph SW5.5 kmh SW 9.0 mph14.5 kmh 29.96 in1014.6 mb 0.00 in0.0 mm 0.00 in0.0 mm 0.00 in0.0 mm
12:18 PM 54.6°F12.6°C 52.0°F11.1°C 91% 2.1 mph SSW3.4 kmh SSW 9.0 mph14.5 kmh 29.96 in1014.6 mb 0.00 in0.0 mm 0.00 in0.0 mm 0.00 in0.0 mm
12:23 PM 54.7°F12.6°C 52.1°F11.2°C 91% 2.2 mph SW3.5 kmh SW 9.0 mph14.5 kmh 29.95 in1014.2 mb 0.00 in0.0 mm 0.00 in0.0 mm 0.00 in0.0 mm
12:28 PM 54.8°F12.7°C 52.2°F11.2°C 91% 3.7 mph WSW6.0 kmh WSW 7.0 mph11.3 kmh 29.96 in1014.6 mb 0.00 in0.0 mm 0.00 in0.0 mm 0.00 in0.0 mm
12:33 PM 55.0°F12.8°C 52.4°F11.3°C 91% 3.2 mph SW5.1 kmh SW 7.0 mph11.3 kmh 29.96 in1014.6 mb 0.00 in0.0 mm 0.00 in0.0 mm 0.00 in0.0 mm
12:38 PM 55.1°F12.8°C 52.5°F11.4°C 91% 1.9 mph WSW3.1 kmh WSW 7.0 mph11.3 kmh 29.95 in1014.2 mb 0.00 in0.0 mm 0.00 in0.0 mm 0.00 in0.0 mm
12:43 PM 55.4°F13.0°C 52.8°F11.6°C 91% 1.6 mph SW2.6 kmh SW 7.0 mph11.3 kmh 29.95 in1014.2 mb 0.00 in0.0 mm 0.00 in0.0 mm 0.00 in0.0 mm
12:48 PM 55.6°F13.1°C 52.7°F11.5°C 90% 3.2 mph WSW5.1 kmh WSW 7.0 mph11.3 kmh 29.95 in1014.2 mb 0.00 in0.0 mm 0.00 in0.0 mm 0.00 in0.0 mm
12:53 PM 55.5°F13.1°C 52.6°F11.4°C 90% 2.2 mph WSW3.5 kmh WSW 7.0 mph11.3 kmh 29.95 in1014.2 mb 0.00 in0.0 mm 0.00 in0.0 mm 0.00 in0.0 mm
12:58 PM 55.5°F13.1°C 52.9°F11.6°C 91% 2.7 mph WSW4.3 kmh WSW 7.0 mph11.3 kmh 29.95 in1014.2 mb 0.00 in0.0 mm 0.00 in0.0 mm 0.00 in0.0 mm
01:03 PM 55.2°F12.9°C 52.9°F11.6°C 92% 2.5 mph WSW4.0 kmh WSW 7.0 mph11.3 kmh 29.95 in1014.2 mb 0.00 in0.0 mm 0.00 in0.0 mm 0.00 in0.0 mm
01:08 PM 55.1°F12.8°C 52.8°F11.6°C 92% 3.0 mph WSW4.8 kmh WSW 8.0 mph12.9 kmh 29.95 in1014.2 mb 0.00 in0.0 mm 0.00 in0.0 mm 0.00 in0.0 mm
01:13 PM 55.1°F12.8°C 52.8°F11.6°C 92% 1.6 mph WSW2.6 kmh WSW 8.0 mph12.9 kmh 29.94 in1013.9 mb 0.00 in0.0 mm 0.00 in0.0 mm 0.01 in0.3 mm
01:18 PM 55.0°F12.8°C 52.7°F11.5°C 92% 2.2 mph WSW3.5 kmh WSW 8.0 mph12.9 kmh 29.93 in1013.5 mb 0.01 in0.3 mm 0.12 in3.0 mm 0.01 in0.3 mm
01:23 PM 55.0°F12.8°C 53.0°F11.7°C 93% 2.8 mph WSW4.5 kmh WSW 8.0 mph12.9 kmh 29.93 in1013.5 mb 0.01 in0.3 mm 0.00 in0.0 mm 0.01 in0.3 mm
01:28 PM 55.1°F12.8°C 53.1°F11.7°C 93% 2.7 mph WSW4.3 kmh WSW 7.0 mph11.3 kmh 29.92 in1013.2 mb 0.01 in0.3 mm 0.00 in0.0 mm 0.01 in0.3 mm
01:33 PM 55.2°F12.9°C 53.2°F11.8°C 93% 2.6 mph WSW4.2 kmh WSW 6.0 mph9.7 kmh 29.92 in1013.2 mb 0.01 in0.3 mm 0.00 in0.0 mm 0.01 in0.3 mm
01:38 PM 55.5°F13.1°C 53.5°F11.9°C 93% 2.6 mph WSW4.2 kmh WSW 6.0 mph9.7 kmh 29.92 in1013.2 mb 0.01 in0.3 mm 0.00 in0.0 mm 0.01 in0.3 mm
01:43 PM 55.7°F13.2°C 53.7°F12.1°C 93% 2.0 mph WSW3.2 kmh WSW 6.0 mph9.7 kmh 29.92 in1013.2 mb 0.01 in0.3 mm 0.00 in0.0 mm 0.01 in0.3 mm
01:48 PM 56.1°F13.4°C 54.1°F12.3°C 93% 1.6 mph WSW2.6 kmh WSW 5.0 mph8.0 kmh 29.91 in1012.9 mb 0.01 in0.3 mm 0.00 in0.0 mm 0.01 in0.3 mm
01:53 PM 56.3°F13.5°C 54.3°F12.4°C 93% 1.9 mph WSW3.1 kmh WSW 5.0 mph8.0 kmh 29.91 in1012.9 mb 0.01 in0.3 mm 0.00 in0.0 mm 0.01 in0.3 mm
01:58 PM 56.7°F13.7°C 54.4°F12.4°C 92% 2.6 mph SW4.2 kmh SW 4.0 mph6.4 kmh 29.91 in1012.9 mb 0.01 in0.3 mm 0.00 in0.0 mm 0.01 in0.3 mm
02:03 PM 57.0°F13.9°C 54.7°F12.6°C 92% 2.2 mph SW3.5 kmh SW 5.0 mph8.0 kmh 29.90 in1012.5 mb 0.01 in0.3 mm 0.00 in0.0 mm 0.01 in0.3 mm
02:08 PM 57.5°F14.2°C 54.9°F12.7°C 91% 2.3 mph WSW3.7 kmh WSW 5.0 mph8.0 kmh 29.89 in1012.2 mb 0.01 in0.3 mm 0.00 in0.0 mm 0.01 in0.3 mm
02:13 PM 58.0°F14.4°C 55.4°F13.0°C 91% 2.2 mph WSW3.5 kmh WSW 5.0 mph8.0 kmh 29.90 in1012.5 mb 0.00 in0.0 mm 0.00 in0.0 mm 0.01 in0.3 mm
02:18 PM 58.5°F14.7°C 55.6°F13.1°C 90% 2.0 mph SW3.2 kmh SW 5.0 mph8.0 kmh 29.90 in1012.5 mb 0.00 in0.0 mm 0.00 in0.0 mm 0.01 in0.3 mm
02:23 PM 58.8°F14.9°C 55.5°F13.1°C 89% 2.7 mph WSW4.3 kmh WSW 10.0 mph16.1 kmh 29.89 in1012.2 mb 0.00 in0.0 mm 0.00 in0.0 mm 0.01 in0.3 mm
02:28 PM 59.2°F15.1°C 55.9°F13.3°C 89% 4.1 mph SW6.6 kmh SW 12.0 mph19.3 kmh 29.89 in1012.2 mb 0.00 in0.0 mm 0.00 in0.0 mm 0.01 in0.3 mm
02:33 PM 59.4°F15.2°C 55.8°F13.2°C 88% 3.5 mph SW5.6 kmh SW 12.0 mph19.3 kmh 29.89 in1012.2 mb 0.00 in0.0 mm 0.00 in0.0 mm 0.01 in0.3 mm
02:38 PM 59.6°F15.3°C 55.7°F13.2°C 87% 6.5 mph SW10.5 kmh SW 12.0 mph19.3 kmh 29.89 in1012.2 mb 0.00 in0.0 mm 0.00 in0.0 mm 0.01 in0.3 mm
02:43 PM 59.7°F15.4°C 55.8°F13.2°C 87% 2.0 mph WSW3.2 kmh WSW 12.0 mph19.3 kmh 29.89 in1012.2 mb 0.00 in0.0 mm 0.00 in0.0 mm 0.01 in0.3 mm
02:48 PM 59.9°F15.5°C 55.7°F13.2°C 86% 4.8 mph SW7.7 kmh SW 12.0 mph19.3 kmh 29.89 in1012.2 mb 0.00 in0.0 mm 0.00 in0.0 mm 0.01 in0.3 mm
02:53 PM 59.9°F15.5°C 56.0°F13.3°C 87% 2.0 mph SW3.2 kmh SW 12.0 mph19.3 kmh 29.88 in1011.9 mb 0.00 in0.0 mm 0.00 in0.0 mm 0.01 in0.3 mm
02:58 PM 60.0°F15.6°C 56.1°F13.4°C 87% 2.6 mph SW4.2 kmh SW 10.0 mph16.1 kmh 29.88 in1011.9 mb 0.00 in0.0 mm 0.00 in0.0 mm 0.01 in0.3 mm
03:03 PM 60.2°F15.7°C 56.0°F13.3°C 86% 3.1 mph WSW5.0 kmh WSW 10.0 mph16.1 kmh 29.88 in1011.9 mb 0.00 in0.0 mm 0.00 in0.0 mm 0.01 in0.3 mm
03:08 PM 60.4°F15.8°C 56.2°F13.4°C 86% 4.7 mph SW7.6 kmh SW 8.0 mph12.9 kmh 29.88 in1011.9 mb 0.00 in0.0 mm 0.00 in0.0 mm 0.01 in0.3 mm
03:13 PM 60.6°F15.9°C 56.4°F13.6°C 86% 1.5 mph WSW2.4 kmh WSW 8.0 mph12.9 kmh 29.89 in1012.2 mb 0.00 in0.0 mm 0.00 in0.0 mm 0.01 in0.3 mm
03:18 PM 60.6°F15.9°C 56.1°F13.4°C 85% 3.6 mph W5.8 kmh W 8.0 mph12.9 kmh 29.89 in1012.2 mb 0.00 in0.0 mm 0.00 in0.0 mm 0.01 in0.3 mm
03:22 PM 60.6°F15.9°C 56.1°F13.4°C 85% 3.3 mph WSW5.3 kmh WSW 8.0 mph12.9 kmh 29.89 in1012.2 mb 0.00 in0.0 mm 0.00 in0.0 mm 0.01 in0.3 mm
03:27 PM 60.5°F15.8°C 56.0°F13.3°C 85% 2.9 mph WSW4.7 kmh WSW 8.0 mph12.9 kmh 29.89 in1012.2 mb 0.00 in0.0 mm 0.00 in0.0 mm 0.01 in0.3 mm
03:32 PM 60.6°F15.9°C 56.4°F13.6°C 86% 2.7 mph SW4.3 kmh SW 8.0 mph12.9 kmh 29.88 in1011.9 mb 0.00 in0.0 mm 0.00 in0.0 mm 0.01 in0.3 mm
03:37 PM 60.7°F15.9°C 56.5°F13.6°C 86% 1.5 mph SW2.4 kmh SW 8.0 mph12.9 kmh 29.89 in1012.2 mb 0.00 in0.0 mm 0.00 in0.0 mm 0.01 in0.3 mm
03:42 PM 60.8°F16.0°C 56.6°F13.7°C 86% 2.5 mph SW4.0 kmh SW 8.0 mph12.9 kmh 29.89 in1012.2 mb 0.00 in0.0 mm 0.00 in0.0 mm 0.01 in0.3 mm
03:47 PM 60.9°F16.1°C 56.4°F13.6°C 85% 2.4 mph WSW3.9 kmh WSW 6.0 mph9.7 kmh 29.89 in1012.2 mb 0.00 in0.0 mm 0.00 in0.0 mm 0.01 in0.3 mm
03:52 PM 60.9°F16.1°C 56.4°F13.6°C 85% 3.0 mph SW4.8 kmh SW 6.0 mph9.7 kmh 29.88 in1011.9 mb 0.00 in0.0 mm 0.00 in0.0 mm 0.01 in0.3 mm
03:57 PM 61.0°F16.1°C 56.5°F13.6°C 85% 3.2 mph SW5.1 kmh SW 6.0 mph9.7 kmh 29.88 in1011.9 mb 0.00 in0.0 mm 0.00 in0.0 mm 0.01 in0.3 mm
04:02 PM 61.0°F16.1°C 56.8°F13.8°C 86% 2.9 mph SW4.7 kmh SW 6.0 mph9.7 kmh 29.88 in1011.9 mb 0.00 in0.0 mm 0.00 in0.0 mm 0.01 in0.3 mm
04:07 PM 61.0°F16.1°C 56.8°F13.8°C 86% 1.0 mph SW1.6 kmh SW 6.0 mph9.7 kmh 29.87 in1011.5 mb 0.00 in0.0 mm 0.00 in0.0 mm 0.01 in0.3 mm
04:12 PM 61.1°F16.2°C 56.9°F13.8°C 86% 1.5 mph SW2.4 kmh SW 6.0 mph9.7 kmh 29.87 in1011.5 mb 0.00 in0.0 mm 0.00 in0.0 mm 0.01 in0.3 mm
04:17 PM 61.1°F16.2°C 56.9°F13.8°C 86% 1.4 mph SW2.3 kmh SW 4.0 mph6.4 kmh 29.86 in1011.2 mb 0.00 in0.0 mm 0.00 in0.0 mm 0.01 in0.3 mm
04:22 PM 61.1°F16.2°C 56.9°F13.8°C 86% 1.8 mph S2.9 kmh S 4.0 mph6.4 kmh 29.86 in1011.2 mb 0.00 in0.0 mm 0.00 in0.0 mm 0.01 in0.3 mm
04:27 PM 61.1°F16.2°C 57.2°F14.0°C 87% 1.3 mph SW2.1 kmh SW 4.0 mph6.4 kmh 29.86 in1011.2 mb 0.00 in0.0 mm 0.00 in0.0 mm 0.01 in0.3 mm
04:32 PM 61.1°F16.2°C 57.2°F14.0°C 87% 4.2 mph SW6.8 kmh SW 10.0 mph16.1 kmh 29.86 in1011.2 mb 0.00 in0.0 mm 0.00 in0.0 mm 0.01 in0.3 mm
04:37 PM 61.0°F16.1°C 57.1°F13.9°C 87% 2.8 mph SW4.5 kmh SW 10.0 mph16.1 kmh 29.87 in1011.5 mb 0.00 in0.0 mm 0.00 in0.0 mm 0.01 in0.3 mm
04:42 PM 60.8°F16.0°C 57.2°F14.0°C 88% 5.4 mph SW8.7 kmh SW 10.0 mph16.1 kmh 29.87 in1011.5 mb 0.00 in0.0 mm 0.00 in0.0 mm 0.01 in0.3 mm
04:47 PM 60.6°F15.9°C 57.0°F13.9°C 88% 3.4 mph SW5.5 kmh SW 10.0 mph16.1 kmh 29.87 in1011.5 mb 0.00 in0.0 mm 0.00 in0.0 mm 0.01 in0.3 mm
04:52 PM 60.3°F15.7°C 57.4°F14.1°C 90% 4.4 mph SW7.1 kmh SW 10.0 mph16.1 kmh 29.87 in1011.5 mb 0.00 in0.0 mm 0.00 in0.0 mm 0.01 in0.3 mm
04:57 PM 59.9°F15.5°C 57.3°F14.1°C 91% 2.4 mph SW3.9 kmh SW 10.0 mph16.1 kmh 29.87 in1011.5 mb 0.00 in0.0 mm 0.00 in0.0 mm 0.01 in0.3 mm
05:02 PM 59.6°F15.3°C 57.3°F14.1°C 92% 1.9 mph SW3.1 kmh SW 10.0 mph16.1 kmh 29.86 in1011.2 mb 0.00 in0.0 mm 0.00 in0.0 mm 0.01 in0.3 mm
05:07 PM 59.4°F15.2°C 57.4°F14.1°C 93% 3.1 mph SW5.0 kmh SW 10.0 mph16.1 kmh 29.86 in1011.2 mb 0.00 in0.0 mm 0.00 in0.0 mm 0.01 in0.3 mm
05:12 PM 59.3°F15.2°C 57.5°F14.2°C 94% 4.0 mph SW6.4 kmh SW 10.0 mph16.1 kmh 29.86 in1011.2 mb 0.00 in0.0 mm 0.00 in0.0 mm 0.01 in0.3 mm
05:17 PM 59.2°F15.1°C 57.4°F14.1°C 94% 4.9 mph SW7.9 kmh SW 10.0 mph16.1 kmh 29.85 in1010.8 mb 0.00 in0.0 mm 0.00 in0.0 mm 0.01 in0.3 mm
05:22 PM 59.1°F15.1°C 57.6°F14.2°C 95% 4.7 mph SW7.6 kmh SW 10.0 mph16.1 kmh 29.85 in1010.8 mb 0.00 in0.0 mm 0.00 in0.0 mm 0.01 in0.3 mm
05:27 PM 59.1°F15.1°C 57.6°F14.2°C 95% 6.4 mph SW10.3 kmh SW 10.0 mph16.1 kmh 29.85 in1010.8 mb 0.00 in0.0 mm 0.00 in0.0 mm 0.01 in0.3 mm
05:32 PM 59.1°F15.1°C 57.6°F14.2°C 95% 2.8 mph SW4.5 kmh SW 10.0 mph16.1 kmh 29.85 in1010.8 mb 0.00 in0.0 mm 0.00 in0.0 mm 0.01 in0.3 mm
05:37 PM 59.1°F15.1°C 57.6°F14.2°C 95% 6.4 mph SW10.3 kmh SW 11.0 mph17.7 kmh 29.86 in1011.2 mb 0.00 in0.0 mm 0.00 in0.0 mm 0.01 in0.3 mm
05:42 PM 59.1°F15.1°C 57.6°F14.2°C 95% 3.8 mph WSW6.1 kmh WSW 12.0 mph19.3 kmh 29.86 in1011.2 mb 0.00 in0.0 mm 0.00 in0.0 mm 0.01 in0.3 mm
05:47 PM 59.1°F15.1°C 57.6°F14.2°C 95% 2.9 mph WSW4.7 kmh WSW 12.0 mph19.3 kmh 29.86 in1011.2 mb 0.00 in0.0 mm 0.00 in0.0 mm 0.01 in0.3 mm
05:52 PM 59.1°F15.1°C 57.6°F14.2°C 95% 4.0 mph WSW6.4 kmh WSW 12.0 mph19.3 kmh 29.86 in1011.2 mb 0.00 in0.0 mm 0.00 in0.0 mm 0.01 in0.3 mm
05:57 PM 59.1°F15.1°C 57.6°F14.2°C 95% 4.3 mph WSW6.9 kmh WSW 12.0 mph19.3 kmh 29.86 in1011.2 mb 0.00 in0.0 mm 0.00 in0.0 mm 0.01 in0.3 mm
06:02 PM 59.1°F15.1°C 57.6°F14.2°C 95% 2.0 mph SW3.2 kmh SW 12.0 mph19.3 kmh 29.86 in1011.2 mb 0.00 in0.0 mm 0.00 in0.0 mm 0.01 in0.3 mm
06:08 PM 59.1°F15.1°C 57.6°F14.2°C 95% 3.9 mph SW6.3 kmh SW 12.0 mph19.3 kmh 29.87 in1011.5 mb 0.00 in0.0 mm 0.00 in0.0 mm 0.01 in0.3 mm
06:13 PM 59.1°F15.1°C 57.3°F14.1°C 94% 4.0 mph WSW6.4 kmh WSW 9.0 mph14.5 kmh 29.87 in1011.5 mb 0.00 in0.0 mm 0.00 in0.0 mm 0.01 in0.3 mm
06:17 PM 59.1°F15.1°C 57.3°F14.1°C 94% Calm Calm 9.0 mph14.5 kmh 29.87 in1011.5 mb 0.00 in0.0 mm 0.00 in0.0 mm 0.01 in0.3 mm
06:23 PM 59.1°F15.1°C 57.3°F14.1°C 94% 2.2 mph WSW3.5 kmh WSW 9.0 mph14.5 kmh 29.87 in1011.5 mb 0.00 in0.0 mm 0.00 in0.0 mm 0.01 in0.3 mm
06:28 PM 59.1°F15.1°C 57.3°F14.1°C 94% 3.5 mph WSW5.6 kmh WSW 8.0 mph12.9 kmh 29.86 in1011.2 mb 0.00 in0.0 mm 0.00 in0.0 mm 0.01 in0.3 mm
06:33 PM 59.2°F15.1°C 57.4°F14.1°C 94% 4.6 mph WSW7.4 kmh WSW 10.0 mph16.1 kmh 29.86 in1011.2 mb 0.00 in0.0 mm 0.00 in0.0 mm 0.01 in0.3 mm
06:38 PM 59.2°F15.1°C 57.4°F14.1°C 94% 2.1 mph WSW3.4 kmh WSW 10.0 mph16.1 kmh 29.87 in1011.5 mb 0.00 in0.0 mm 0.00 in0.0 mm 0.01 in0.3 mm
06:43 PM 59.3°F15.2°C 57.5°F14.2°C 94% 3.5 mph WSW5.6 kmh WSW 10.0 mph16.1 kmh 29.87 in1011.5 mb 0.00 in0.0 mm 0.00 in0.0 mm 0.01 in0.3 mm
06:48 PM 59.3°F15.2°C 57.5°F14.2°C 94% 2.8 mph WSW4.5 kmh WSW 10.0 mph16.1 kmh 29.87 in1011.5 mb 0.00 in0.0 mm 0.00 in0.0 mm 0.01 in0.3 mm
06:53 PM 59.2°F15.1°C 57.4°F14.1°C 94% 2.2 mph WSW3.5 kmh WSW 8.0 mph12.9 kmh 29.87 in1011.5 mb 0.00 in0.0 mm 0.00 in0.0 mm 0.01 in0.3 mm
06:58 PM 59.3°F15.2°C 57.5°F14.2°C 94% 3.7 mph SW6.0 kmh SW 8.0 mph12.9 kmh 29.87 in1011.5 mb 0.00 in0.0 mm 0.00 in0.0 mm 0.01 in0.3 mm
07:03 PM 59.3°F15.2°C 57.2°F14.0°C 93% 1.8 mph WSW2.9 kmh WSW 7.0 mph11.3 kmh 29.87 in1011.5 mb 0.00 in0.0 mm 0.00 in0.0 mm 0.01 in0.3 mm
07:08 PM 59.3°F15.2°C 57.2°F14.0°C 93% 1.6 mph WSW2.6 kmh WSW 6.0 mph9.7 kmh 29.87 in1011.5 mb 0.00 in0.0 mm 0.00 in0.0 mm 0.01 in0.3 mm
07:13 PM 59.2°F15.1°C 57.4°F14.1°C 94% 2.0 mph SW3.2 kmh SW 6.0 mph9.7 kmh 29.87 in1011.5 mb 0.00 in0.0 mm 0.00 in0.0 mm 0.01 in0.3 mm
07:18 PM 59.1°F15.1°C 57.3°F14.1°C 94% 1.0 mph SW1.6 kmh SW 6.0 mph9.7 kmh 29.87 in1011.5 mb 0.00 in0.0 mm 0.00 in0.0 mm 0.01 in0.3 mm
07:23 PM 59.0°F15.0°C 57.2°F14.0°C 94% 1.3 mph WSW2.1 kmh WSW 6.0 mph9.7 kmh 29.87 in1011.5 mb 0.00 in0.0 mm 0.00 in0.0 mm 0.01 in0.3 mm
07:28 PM 59.0°F15.0°C 57.2°F14.0°C 94% 1.5 mph SW2.4 kmh SW 6.0 mph9.7 kmh 29.87 in1011.5 mb 0.00 in0.0 mm 0.00 in0.0 mm 0.01 in0.3 mm
07:33 PM 58.9°F14.9°C 57.1°F13.9°C 94% 1.4 mph SW2.3 kmh SW 3.0 mph4.8 kmh 29.86 in1011.2 mb 0.00 in0.0 mm 0.00 in0.0 mm 0.01 in0.3 mm
07:38 PM 58.8°F14.9°C 57.3°F14.1°C 95% 1.3 mph SW2.1 kmh SW 3.0 mph4.8 kmh 29.87 in1011.5 mb 0.00 in0.0 mm 0.00 in0.0 mm 0.01 in0.3 mm
07:43 PM 58.7°F14.8°C 57.2°F14.0°C 95% 1.1 mph SW1.8 kmh SW 2.0 mph3.2 kmh 29.86 in1011.2 mb 0.00 in0.0 mm 0.00 in0.0 mm 0.01 in0.3 mm
07:48 PM 58.7°F14.8°C 57.2°F14.0°C 95% 1.3 mph SW2.1 kmh SW 3.0 mph4.8 kmh 29.86 in1011.2 mb 0.00 in0.0 mm 0.00 in0.0 mm 0.01 in0.3 mm
07:53 PM 58.6°F14.8°C 57.1°F13.9°C 95% 1.2 mph SW1.9 kmh SW 3.0 mph4.8 kmh 29.87 in1011.5 mb 0.00 in0.0 mm 0.00 in0.0 mm 0.01 in0.3 mm
07:58 PM 58.6°F14.8°C 57.1°F13.9°C 95% 1.0 mph WSW1.6 kmh WSW 3.0 mph4.8 kmh 29.87 in1011.5 mb 0.00 in0.0 mm 0.00 in0.0 mm 0.01 in0.3 mm
08:03 PM 58.6°F14.8°C 57.1°F13.9°C 95% 1.0 mph SW1.6 kmh SW 2.0 mph3.2 kmh 29.87 in1011.5 mb 0.00 in0.0 mm 0.00 in0.0 mm 0.01 in0.3 mm
08:08 PM 58.6°F14.8°C 57.1°F13.9°C 95% 1.0 mph SW1.6 kmh SW 2.0 mph3.2 kmh 29.87 in1011.5 mb 0.00 in0.0 mm 0.00 in0.0 mm 0.01 in0.3 mm
08:13 PM 58.5°F14.7°C 57.0°F13.9°C 95% 1.3 mph SW2.1 kmh SW 2.0 mph3.2 kmh 29.86 in1011.2 mb 0.00 in0.0 mm 0.00 in0.0 mm 0.01 in0.3 mm
08:18 PM 58.5°F14.7°C 57.0°F13.9°C 95% 1.5 mph SW2.4 kmh SW 2.0 mph3.2 kmh 29.86 in1011.2 mb 0.00 in0.0 mm 0.00 in0.0 mm 0.01 in0.3 mm
08:23 PM 58.5°F14.7°C 57.3°F14.1°C 96% 1.5 mph SW2.4 kmh SW 2.0 mph3.2 kmh 29.86 in1011.2 mb 0.00 in0.0 mm 0.00 in0.0 mm 0.01 in0.3 mm
08:28 PM 58.5°F14.7°C 57.3°F14.1°C 96% 1.0 mph SW1.6 kmh SW 2.0 mph3.2 kmh 29.87 in1011.5 mb 0.00 in0.0 mm 0.00 in0.0 mm 0.01 in0.3 mm
08:33 PM 58.5°F14.7°C 57.3°F14.1°C 96% 1.8 mph SW2.9 kmh SW 3.0 mph4.8 kmh 29.87 in1011.5 mb 0.00 in0.0 mm 0.00 in0.0 mm 0.01 in0.3 mm
08:38 PM 58.5°F14.7°C 57.3°F14.1°C 96% 1.4 mph SW2.3 kmh SW 3.0 mph4.8 kmh 29.86 in1011.2 mb 0.00 in0.0 mm 0.00 in0.0 mm 0.01 in0.3 mm
08:43 PM 58.5°F14.7°C 57.3°F14.1°C 96% Calm Calm 3.0 mph4.8 kmh 29.86 in1011.2 mb 0.01 in0.3 mm 0.12 in3.0 mm 0.02 in0.5 mm
08:48 PM 58.4°F14.7°C 57.2°F14.0°C 96% 1.2 mph WSW1.9 kmh WSW 3.0 mph4.8 kmh 29.86 in1011.2 mb 0.01 in0.3 mm 0.00 in0.0 mm 0.02 in0.5 mm
08:53 PM 58.5°F14.7°C 57.3°F14.1°C 96% 1.9 mph WSW3.1 kmh WSW 3.0 mph4.8 kmh 29.87 in1011.5 mb 0.01 in0.3 mm 0.00 in0.0 mm 0.02 in0.5 mm
08:58 PM 58.4°F14.7°C 57.2°F14.0°C 96% 1.7 mph WSW2.7 kmh WSW 4.0 mph6.4 kmh 29.86 in1011.2 mb 0.02 in0.5 mm 0.12 in3.0 mm 0.03 in0.8 mm
09:03 PM 58.5°F14.7°C 57.3°F14.1°C 96% 1.4 mph WSW2.3 kmh WSW 4.0 mph6.4 kmh 29.86 in1011.2 mb 0.02 in0.5 mm 0.00 in0.0 mm 0.03 in0.8 mm
09:08 PM 58.5°F14.7°C 57.3°F14.1°C 96% 1.0 mph SW1.6 kmh SW 4.0 mph6.4 kmh 29.86 in1011.2 mb 0.02 in0.5 mm 0.00 in0.0 mm 0.03 in0.8 mm
09:13 PM 58.4°F14.7°C 57.2°F14.0°C 96% 1.0 mph SW1.6 kmh SW 4.0 mph6.4 kmh 29.86 in1011.2 mb 0.02 in0.5 mm 0.00 in0.0 mm 0.03 in0.8 mm
09:18 PM 58.4°F14.7°C 57.2°F14.0°C 96% 1.0 mph SW1.6 kmh SW 3.0 mph4.8 kmh 29.86 in1011.2 mb 0.02 in0.5 mm 0.00 in0.0 mm 0.03 in0.8 mm
09:22 PM 58.4°F14.7°C 57.2°F14.0°C 96% 1.2 mph SW1.9 kmh SW 2.0 mph3.2 kmh 29.86 in1011.2 mb 0.02 in0.5 mm 0.00 in0.0 mm 0.03 in0.8 mm
09:27 PM 58.3°F14.6°C 57.2°F14.0°C 96% 1.0 mph SW1.6 kmh SW 2.0 mph3.2 kmh 29.85 in1010.8 mb 0.02 in0.5 mm 0.00 in0.0 mm 0.03 in0.8 mm
09:32 PM 58.2°F14.6°C 57.1°F13.9°C 96% 1.0 mph S1.6 kmh S 2.0 mph3.2 kmh 29.85 in1010.8 mb 0.02 in0.5 mm 0.00 in0.0 mm 0.03 in0.8 mm
09:37 PM 58.2°F14.6°C 57.0°F13.9°C 96% 1.0 mph SSE1.6 kmh SSE 2.0 mph3.2 kmh 29.85 in1010.8 mb 0.02 in0.5 mm 0.00 in0.0 mm 0.03 in0.8 mm
09:42 PM 58.2°F14.6°C 57.3°F14.1°C 97% 1.0 mph SSE1.6 kmh SSE 3.0 mph4.8 kmh 29.85 in1010.8 mb 0.01 in0.3 mm 0.00 in0.0 mm 0.03 in0.8 mm
09:47 PM 58.1°F14.5°C 57.3°F14.1°C 97% Calm Calm 3.0 mph4.8 kmh 29.85 in1010.8 mb 0.01 in0.3 mm 0.00 in0.0 mm 0.03 in0.8 mm
09:52 PM 58.1°F14.5°C 57.3°F14.1°C 97% 1.6 mph SW2.6 kmh SW 3.0 mph4.8 kmh 29.85 in1010.8 mb 0.01 in0.3 mm 0.00 in0.0 mm 0.03 in0.8 mm
09:57 PM 58.1°F14.5°C 57.3°F14.1°C 97% 1.0 mph SSW1.6 kmh SSW 3.0 mph4.8 kmh 29.85 in1010.8 mb 0.00 in0.0 mm 0.00 in0.0 mm 0.03 in0.8 mm
10:02 PM 58.1°F14.5°C 57.3°F14.1°C 97% 1.0 mph SSE1.6 kmh SSE 3.0 mph4.8 kmh 29.85 in1010.8 mb 0.00 in0.0 mm 0.00 in0.0 mm 0.03 in0.8 mm
10:07 PM 58.1°F14.5°C 57.2°F14.0°C 97% Calm Calm 3.0 mph4.8 kmh 29.85 in1010.8 mb 0.00 in0.0 mm 0.00 in0.0 mm 0.03 in0.8 mm
10:12 PM 58.1°F14.5°C 57.2°F14.0°C 97% 1.2 mph SSE1.9 kmh SSE 2.0 mph3.2 kmh 29.85 in1010.8 mb 0.00 in0.0 mm 0.00 in0.0 mm 0.03 in0.8 mm
10:17 PM 58.0°F14.4°C 57.1°F13.9°C 97% 1.0 mph S1.6 kmh S 2.0 mph3.2 kmh 29.85 in1010.8 mb 0.00 in0.0 mm 0.00 in0.0 mm 0.03 in0.8 mm
10:22 PM 58.0°F14.4°C 57.1°F13.9°C 97% 1.0 mph S1.6 kmh S 2.0 mph3.2 kmh 29.85 in1010.8 mb 0.00 in0.0 mm 0.00 in0.0 mm 0.03 in0.8 mm
10:27 PM 58.0°F14.4°C 57.1°F13.9°C 97% 1.3 mph S2.1 kmh S 3.0 mph4.8 kmh 29.84 in1010.5 mb 0.00 in0.0 mm 0.00 in0.0 mm 0.03 in0.8 mm
10:32 PM 57.9°F14.4°C 57.0°F13.9°C 97% 1.0 mph S1.6 kmh S 4.0 mph6.4 kmh 29.84 in1010.5 mb 0.00 in0.0 mm 0.00 in0.0 mm 0.03 in0.8 mm
10:37 PM 57.9°F14.4°C 57.0°F13.9°C 97% 1.5 mph S2.4 kmh S 4.0 mph6.4 kmh 29.84 in1010.5 mb 0.00 in0.0 mm 0.00 in0.0 mm 0.03 in0.8 mm
10:42 PM 57.9°F14.4°C 57.0°F13.9°C 97% 1.7 mph SSW2.7 kmh SSW 4.0 mph6.4 kmh 29.84 in1010.5 mb 0.01 in0.3 mm 0.12 in3.0 mm 0.04 in1.0 mm
10:47 PM 57.9°F14.4°C 57.0°F13.9°C 97% 1.1 mph SSW1.8 kmh SSW 4.0 mph6.4 kmh 29.84 in1010.5 mb 0.01 in0.3 mm 0.00 in0.0 mm 0.04 in1.0 mm
10:52 PM 57.9°F14.4°C 57.0°F13.9°C 97% 1.2 mph S1.9 kmh S 4.0 mph6.4 kmh 29.84 in1010.5 mb 0.01 in0.3 mm 0.00 in0.0 mm 0.04 in1.0 mm
10:57 PM 57.9°F14.4°C 57.0°F13.9°C 97% 1.1 mph S1.8 kmh S 4.0 mph6.4 kmh 29.84 in1010.5 mb 0.01 in0.3 mm 0.00 in0.0 mm 0.04 in1.0 mm
11:02 PM 57.8°F14.3°C 56.9°F13.8°C 97% 1.5 mph S2.4 kmh S 2.0 mph3.2 kmh 29.84 in1010.5 mb 0.01 in0.3 mm 0.00 in0.0 mm 0.04 in1.0 mm
11:07 PM 57.9°F14.4°C 57.1°F13.9°C 97% 2.6 mph S4.2 kmh S 5.0 mph8.0 kmh 29.83 in1010.2 mb 0.01 in0.3 mm 0.00 in0.0 mm 0.04 in1.0 mm
11:12 PM 57.9°F14.4°C 57.0°F13.9°C 97% 2.1 mph S3.4 kmh S 5.0 mph8.0 kmh 29.83 in1010.2 mb 0.01 in0.3 mm 0.00 in0.0 mm 0.04 in1.0 mm
11:17 PM 57.9°F14.4°C 57.1°F13.9°C 97% 2.0 mph S3.2 kmh S 6.0 mph9.7 kmh 29.82 in1009.8 mb 0.01 in0.3 mm 0.00 in0.0 mm 0.04 in1.0 mm
11:22 PM 57.9°F14.4°C 57.0°F13.9°C 97% 2.0 mph S3.2 kmh S 6.0 mph9.7 kmh 29.82 in1009.8 mb 0.01 in0.3 mm 0.00 in0.0 mm 0.04 in1.0 mm
11:27 PM 57.8°F14.3°C 56.9°F13.8°C 97% 3.8 mph SSW6.1 kmh SSW 9.0 mph14.5 kmh 29.82 in1009.8 mb 0.01 in0.3 mm 0.00 in0.0 mm 0.04 in1.0 mm
11:32 PM 57.8°F14.3°C 56.9°F13.8°C 97% 2.8 mph SSW4.5 kmh SSW 9.0 mph14.5 kmh 29.82 in1009.8 mb 0.01 in0.3 mm 0.00 in0.0 mm 0.04 in1.0 mm
11:37 PM 57.8°F14.3°C 56.9°F13.8°C 97% 3.5 mph SSW5.6 kmh SSW 9.0 mph14.5 kmh 29.82 in1009.8 mb 0.02 in0.5 mm 0.12 in3.0 mm 0.05 in1.3 mm
11:42 PM 57.9°F14.4°C 57.0°F13.9°C 97% 2.2 mph S3.5 kmh S 9.0 mph14.5 kmh 29.82 in1009.8 mb 0.01 in0.3 mm 0.00 in0.0 mm 0.05 in1.3 mm
11:47 PM 57.9°F14.4°C 57.0°F13.9°C 97% 4.6 mph S7.4 kmh S 8.0 mph12.9 kmh 29.82 in1009.8 mb 0.01 in0.3 mm 0.00 in0.0 mm 0.05 in1.3 mm
11:52 PM 57.9°F14.4°C 57.0°F13.9°C 97% 2.7 mph SW4.3 kmh SW 8.0 mph12.9 kmh 29.82 in1009.8 mb 0.01 in0.3 mm 0.00 in0.0 mm 0.05 in1.3 mm
11:57 PM 57.9°F14.4°C 57.0°F13.9°C 97% 3.7 mph SSW6.0 kmh SSW 8.0 mph12.9 kmh 29.82 in1009.8 mb 0.02 in0.5 mm 0.12 in3.0 mm 0.06 in1.5 mm